Latest Weather Observations for Leigh Creek

IDS60801

Issued at 7:11 pm CDT Sunday 24 January 2021 (issued every 10 minutes, with the page automatically refreshed every 10 minutes)

About weather observations | Map of weather stations | Latest weather observations for SA | Other Formats
Station Details ID: 017110 Name: LEIGH CREEK AIRPORT Lat: -30.60 Lon: 138.42 Height: 258.8 m
Data from the previous 72 hours. | See also: Recent months at Leigh Creek
Date/Time
CDT
Temp
°C
App
Temp
°C
Dew
Point
°C
Rel
Hum
%
Delta-T
°C
Wind Press
QNH
hPa
Press
MSL
hPa
Rain since
9am
mm
Dir  Spd
km/h
Gust
km/h
Spd
kts
Gust
kts
24/07:00pm 39.7 33.3 0.9 9 20.3 NNW 24 35 13 19 1001.5 999.7 0.0
24/06:30pm 40.0 34.6 2.6 10 20.1 N 20 30 11 16 1001.3 999.5 0.0
24/06:05pm 40.7 36.0 3.1 10 20.3 NNW 17 48 9 26 1001.1 999.3 0.0
24/06:00pm 40.4 35.1 2.9 10 20.3 NNW 20 33 11 18 1001.3 999.5 0.0
24/05:30pm 40.6 33.8 3.1 10 20.4 N 28 37 15 20 1001.5 999.7 0.0
24/05:00pm 40.8 34.8 3.2 10 20.4 N 24 37 13 20 1001.7 999.9 0.0
24/04:30pm 41.7 35.7 5.3 11 20.5 N 26 41 14 22 1002.0 1000.3 0.0
24/04:00pm 40.5 35.2 6.7 13 19.3 N 24 37 13 20 1002.5 1000.8 0.0
24/03:30pm 41.0 34.1 4.7 11 20.2 NE 30 46 16 25 1003.0 1001.3 0.0
24/03:00pm 41.2 35.4 6.1 12 20.0 N 26 44 14 24 1003.6 1001.9 0.0
24/02:30pm 40.2 33.7 6.5 13 19.2 NNE 30 46 16 25 1004.2 1002.5 0.0
24/02:08pm 40.4 34.2 7.8 14 18.9 NNE 30 48 16 26 1004.6 1002.8 0.0
24/02:00pm 40.3 33.7 7.7 14 18.8 NNE 32 44 17 24 1004.7 1002.9 0.0
24/01:45pm 40.3 33.2 5.4 12 19.5 NNE 32 52 17 28 1004.9 1003.1 0.0
24/01:30pm 40.6 34.0 7.9 14 19.0 N 32 46 17 25 1005.1 1003.3 0.0
24/01:00pm 40.2 33.1 6.5 13 19.1 NE 33 44 18 24 1005.6 1003.9 0.0
24/12:40pm 40.6 34.0 7.9 14 19.0 N 32 56 17 30 1005.8 1004.1 0.0
24/12:30pm 39.3 33.1 7.9 15 18.2 NNE 30 43 16 23 1006.2 1004.5 0.0
24/12:00pm 39.1 32.5 8.7 16 17.8 NNE 33 48 18 26 1006.5 1004.8 0.0
24/11:55am 39.7 33.5 10.1 17 17.7 NNE 33 52 18 28 1006.6 1004.9 0.0
24/11:30am 38.5 31.3 9.1 17 17.2 NNE 37 52 20 28 1007.0 1005.3 0.0
24/11:00am 38.4 31.4 9.9 18 16.9 NNE 37 56 20 30 1007.3 1005.6 0.0
24/10:59am 38.2 31.3 8.9 17 17.1 NNE 35 56 19 30 1007.3 1005.6 0.0
24/10:30am 37.1 29.8 8.8 18 16.4 NNE 37 46 20 25 1007.4 1005.7 0.0
24/10:05am 37.0 30.5 8.8 18 16.3 NNE 33 52 18 28 1007.6 1005.9 0.0
24/10:00am 36.8 30.4 8.6 18 16.3 NNE 32 43 17 23 1007.6 1005.9 0.0
24/09:30am 36.1 29.6 8.0 18 16.0 NNE 32 46 17 25 1007.8 1006.1 0.0
24/09:00am 35.3 28.0 7.4 18 15.7 NNE 35 54 19 29 1007.9 1006.2 0.0
24/08:56am 35.5 28.9 7.6 18 15.8 NE 32 50 17 27 1007.9 1006.2 0.0
24/08:30am 34.7 28.5 7.7 19 15.2 NE 30 43 16 23 1007.7 1006.0 0.0
24/08:00am 32.9 27.8 7.7 21 14.1 NE 24 33 13 18 1007.6 1005.9 0.0
24/07:30am 30.0 28.5 6.6 23 12.7 NNE 4 7 2 4 1007.3 1005.6 0.0
24/07:00am 29.8 28.6 6.5 23 12.6 NNE 2 7 1 4 1007.0 1005.3 0.0
24/06:30am 28.8 27.8 5.6 23 12.3 CALM 0 6 0 3 1006.8 1005.1 0.0
24/06:00am 28.8 27.4 5.6 23 12.3 NNE 2 7 1 4 1006.5 1004.8 0.0
24/05:30am 30.5 28.2 5.7 21 13.3 NNE 7 11 4 6 1006.3 1004.6 0.0
24/05:00am 31.8 28.1 6.1 20 13.9 NNE 15 22 8 12 1006.4 1004.7 0.0
24/04:30am 32.2 28.4 5.7 19 14.3 NNE 15 19 8 10 1006.3 1004.6 0.0
24/04:00am 32.6 28.1 4.4 17 14.9 NE 17 22 9 12 1006.4 1004.7 0.0
24/03:30am 32.7 27.2 0.7 13 16.0 NE 19 24 10 13 1006.5 1004.8 0.0
24/03:00am 30.1 27.4 -2.4 12 15.1 ENE 2 9 1 5 1006.8 1005.1 0.0
24/02:30am 31.4 28.9 -3.8 10 16.1 CALM 0 0 0 0 1006.8 1005.1 0.0
24/02:00am 31.4 28.5 -3.8 10 16.1 ENE 2 6 1 3 1007.0 1005.3 0.0
24/01:30am 31.2 28.5 -2.7 11 15.8 ENE 2 7 1 4 1007.2 1005.5 0.0
24/01:00am 31.7 29.2 -3.6 10 16.2 CALM 0 7 0 4 1007.3 1005.6 0.0
24/12:30am 30.2 26.0 -3.5 11 15.4 ENE 9 11 5 6 1007.5 1005.8 0.0
24/12:00am 30.2 26.3 -4.8 10 15.6 ENE 7 9 4 5 1007.5 1005.8 0.0
 
Date/Time
CDT
Temp
°C
App
Temp
°C
Dew
Point
°C
Rel
Hum
%
Delta-T
°C
Wind Press
QNH
hPa
Press
MSL
hPa
Rain since
9am
mm
Dir  Spd
km/h
Gust
km/h
Spd
kts
Gust
kts
23/11:30pm 32.0 27.7 -4.8 9 16.7 ENE 9 13 5 7 1007.6 1005.9 0.0
23/11:00pm 33.0 28.0 -4.0 9 17.1 NNW 13 17 7 9 1007.6 1005.9 0.0
23/10:30pm 33.1 29.3 -4.0 9 17.2 NNW 7 11 4 6 1007.4 1005.7 0.0
23/10:00pm 32.8 28.6 -4.2 9 17.0 NNW 9 9 5 5 1007.2 1005.5 0.0
23/09:30pm 33.9 29.8 -3.4 9 17.5 NNW 9 13 5 7 1007.1 1005.4 0.0
23/09:00pm 34.6 30.1 -2.9 9 17.9 NNW 11 13 6 7 1006.8 1005.1 0.0
23/08:30pm 36.1 31.0 -5.1 7 19.2 NNW 13 17 7 9 1006.6 1004.9 0.0
23/08:00pm 38.2 32.9 -3.6 7 20.1 N 15 19 8 10 1006.4 1004.7 0.0
23/07:30pm 39.4 34.3 -4.8 6 21.1 NNW 13 19 7 10 1006.2 1004.5 0.0
23/07:00pm 39.6 34.2 -4.6 6 21.2 NNE 15 22 8 12 1006.1 1004.4 0.0
23/06:30pm 40.9 36.7 -3.7 6 21.9 NNW 9 20 5 11 1005.9 1004.2 0.0
23/06:00pm 40.6 36.0 -3.9 6 21.7 NNE 11 17 6 9 1006.0 1004.3 0.0
23/05:30pm 40.4 35.8 -4.1 6 21.6 N 11 26 6 14 1006.1 1004.4 0.0
23/05:00pm 40.2 35.2 -4.2 6 21.5 NW 13 24 7 13 1006.3 1004.6 0.0
23/04:30pm 40.6 36.0 -3.9 6 21.7 NW 11 20 6 11 1006.4 1004.7 0.0
23/04:00pm 40.7 36.5 -3.9 6 21.7 NW 9 20 5 11 1006.5 1004.8 0.0
23/03:30pm 41.5 34.5 -3.3 6 22.2 NNW 24 35 13 19 1006.8 1005.1 0.0
23/03:00pm 40.1 35.1 -4.3 6 21.5 N 13 22 7 12 1007.2 1005.5 0.0
23/02:30pm 40.0 33.9 -4.3 6 21.4 WNW 19 26 10 14 1007.4 1005.7 0.0
23/02:00pm 40.8 34.4 -1.7 7 21.4 N 22 37 12 20 1007.8 1006.1 0.0
23/01:30pm 40.3 34.0 -4.1 6 21.6 N 20 39 11 21 1008.2 1006.5 0.0
23/01:17pm 39.5 31.8 -2.6 7 20.8 NNW 28 46 15 25 1008.3 1006.6 0.0
23/01:00pm 39.9 32.3 -2.4 7 21.0 NNW 28 43 15 23 1008.6 1006.8 0.0
23/12:30pm 39.1 31.8 -2.9 7 20.6 N 26 37 14 20 1009.0 1007.3 0.0
23/12:00pm 39.3 32.2 -4.8 6 21.0 N 24 37 13 20 1009.2 1007.5 0.0
23/11:30am 38.5 30.4 -3.4 7 20.3 N 30 41 16 22 1009.5 1007.8 0.0
23/11:05am 37.8 30.0 -3.9 7 19.9 N 28 46 15 25 1009.7 1008.0 0.0
23/11:00am 38.0 30.2 -3.7 7 20.0 NNE 28 39 15 21 1009.7 1008.0 0.0
23/10:30am 37.1 28.9 -4.4 7 19.6 NNE 30 39 16 21 1009.8 1008.1 0.0
23/10:00am 36.4 28.9 -4.9 7 19.3 NE 26 35 14 19 1009.8 1008.1 0.0
23/09:30am 35.2 26.4 -5.7 7 18.7 E 32 37 17 20 1009.7 1008.0 0.0
23/09:00am 33.6 25.1 -6.9 7 17.9 E 30 39 16 21 1009.7 1008.0 0.0
23/08:30am 31.3 21.9 -6.8 8 16.6 E 35 43 19 23 1009.6 1007.9 0.0
23/08:00am 29.8 19.6 -6.4 9 15.6 E 39 46 21 25 1009.4 1007.7 0.0
23/07:30am 28.7 18.8 -7.3 9 15.2 E 37 50 20 27 1009.1 1007.4 0.0
23/07:00am 27.9 18.4 -7.9 9 14.8 E 35 48 19 26 1008.9 1007.2 0.0
23/06:30am 27.5 17.9 -8.2 9 14.7 E 35 46 19 25 1008.8 1007.1 0.0
23/06:00am 27.7 18.5 -8.0 9 14.7 E 33 43 18 23 1008.5 1006.7 0.0
23/05:30am 26.3 19.6 -7.7 10 13.9 ESE 20 26 11 14 1008.2 1006.5 0.0
23/05:00am 25.3 19.0 -6.1 12 13.1 ESE 19 20 10 11 1008.0 1006.3 0.0
23/04:30am 26.3 20.4 -5.3 12 13.5 ESE 17 20 9 11 1008.0 1006.3 0.0
23/04:00am 27.7 21.0 -4.3 12 14.1 ESE 22 26 12 14 1008.0 1006.3 0.0
23/03:30am 25.2 20.3 -3.2 15 12.5 S 13 17 7 9 1008.0 1006.3 0.0
23/03:00am 26.1 22.3 -3.5 14 13.1 S 7 11 4 6 1008.1 1006.4 0.0
23/02:30am 25.9 21.7 -3.6 14 13.0 S 9 11 5 6 1008.3 1006.6 0.0
23/02:00am 25.5 21.6 -4.9 13 13.0 S 7 13 4 7 1008.3 1006.6 0.0
23/01:30am 28.3 23.9 -6.2 10 14.8 S 9 11 5 6 1008.5 1006.7 0.0
23/01:00am 29.1 24.7 -5.6 10 15.1 S 9 13 5 7 1008.5 1006.7 0.0
23/12:30am 29.4 23.8 -6.7 9 15.5 S 15 17 8 9 1008.6 1006.8 0.0
23/12:00am 30.5 25.7 -5.9 9 16.0 S 11 15 6 8 1008.8 1007.1 0.0
 
Date/Time
CDT
Temp
°C
App
Temp
°C
Dew
Point
°C
Rel
Hum
%
Delta-T
°C
Wind Press
QNH
hPa
Press
MSL
hPa
Rain since
9am
mm
Dir  Spd
km/h
Gust
km/h
Spd
kts
Gust
kts
22/11:30pm 31.8 26.0 -4.9 9 16.6 S 17 26 9 14 1008.6 1006.8 0.0
22/11:00pm 32.7 27.3 -4.3 9 16.9 SSE 15 24 8 13 1008.9 1007.2 0.0
22/10:30pm 32.6 26.4 -2.9 10 16.7 SSW 20 28 11 15 1008.6 1006.8 0.0
22/10:00pm 32.4 27.2 -3.1 10 16.6 SSW 15 19 8 10 1008.2 1006.5 0.0
22/09:30pm 33.0 27.8 -2.6 10 16.9 SSW 15 17 8 9 1008.0 1006.3 0.0
22/09:00pm 34.0 29.1 -3.3 9 17.6 SSW 13 17 7 9 1007.7 1006.0 0.0
22/08:30pm 35.4 30.3 -2.3 9 18.2 SSW 15 20 8 11 1007.6 1005.9 0.0
22/08:00pm 36.7 30.9 -1.3 9 18.8 SSW 19 28 10 15 1007.4 1005.7 0.0
22/07:30pm 37.6 31.9 -0.6 9 19.3 SSW 19 28 10 15 1007.2 1005.5 0.0
22/07:00pm 38.0 31.4 -0.3 9 19.4 SW 24 33 13 18 1007.0 1005.3 0.0
22/06:30pm 38.2 32.4 -0.2 9 19.5 SW 20 32 11 17 1007.0 1005.3 0.0
22/06:00pm 38.8 32.7 0.3 9 19.8 SSW 22 28 12 15 1006.9 1005.2 0.0
22/05:30pm 38.8 34.8 0.3 9 19.8 WSW 11 20 6 11 1007.0 1005.3 0.0
22/05:00pm 39.4 34.1 -0.9 8 20.4 W 17 24 9 13 1007.2 1005.5 0.0
22/04:30pm 39.3 34.7 -1.0 8 20.4 SSE 13 22 7 12 1007.3 1005.6 0.0
22/04:00pm 39.1 31.8 -2.9 7 20.6 WSW 26 35 14 19 1007.6 1005.9 0.0
22/03:30pm 40.1 33.3 -2.2 7 21.1 W 24 43 13 23 1007.9 1006.2 0.0
22/03:00pm 39.4 33.4 -2.7 7 20.8 W 19 39 10 21 1008.3 1006.6 0.0
22/02:30pm 38.6 32.6 -3.3 7 20.4 WNW 19 30 10 16 1008.8 1007.1 0.0
22/02:00pm 38.0 31.4 -3.7 7 20.0 W 22 35 12 19 1009.1 1007.4 0.0
22/01:30pm 38.5 32.8 -3.4 7 20.3 WNW 17 32 9 17 1009.5 1007.8 0.0
22/01:00pm 38.0 32.7 -3.7 7 20.0 NW 15 28 8 15 1009.8 1008.1 0.0
22/12:30pm 37.6 31.5 -4.0 7 19.9 WNW 19 32 10 17 1010.1 1008.4 0.0
22/12:00pm 36.8 31.4 -4.6 7 19.5 W 15 22 8 12 1010.4 1008.7 0.0
22/11:30am 36.1 30.6 -5.1 7 19.1 WNW 15 24 8 13 1010.6 1008.9 0.0
22/11:00am 35.5 30.4 -5.5 7 18.8 WNW 13 24 7 13 1010.6 1008.9 0.0
22/10:30am 34.5 29.3 -6.3 7 18.4 NW 13 20 7 11 1010.8 1009.1 0.0
22/10:00am 33.7 29.0 -5.1 8 17.7 N 11 17 6 9 1011.1 1009.4 0.0
22/09:30am 32.3 28.4 -6.1 8 17.0 ENE 6 11 3 6 1011.0 1009.3 0.0
22/09:00am 30.4 28.0 -3.3 11 15.4 CALM 0 0 0 0 1011.1 1009.4 0.0
22/08:30am 27.4 24.6 -3.4 13 13.8 E 2 7 1 4 1011.0 1009.3 0.0
22/08:00am 24.2 21.5 -2.4 17 11.8 E 2 7 1 4 1010.8 1009.1 0.0
22/07:30am 22.3 19.9 -3.1 18 10.9 CALM 0 0 0 0 1010.6 1008.9 0.0
22/07:00am 21.1 18.2 -4.1 18 10.5 E 2 7 1 4 1010.4 1008.7 0.0
22/06:30am 19.7 15.4 -4.5 19 9.9 E 9 13 5 7 1010.3 1008.6 0.0
22/06:00am 20.5 15.5 -4.6 18 10.3 E 13 15 7 8 1010.2 1008.5 0.0
22/05:30am 20.9 16.3 -4.3 18 10.5 E 11 13 6 7 1010.1 1008.4 0.0
22/05:00am 21.0 16.7 -4.9 17 10.6 E 9 13 5 7 1010.0 1008.3 0.0
22/04:30am 22.5 19.9 -4.5 16 11.3 CALM 0 0 0 0 1009.7 1008.0 0.0
22/04:00am 20.5 16.6 -4.6 18 10.3 E 7 9 4 5 1009.6 1007.9 0.0
22/03:30am 22.4 18.1 -4.6 16 11.3 E 9 11 5 6 1009.3 1007.6 0.0
22/03:00am 22.7 18.4 -5.2 15 11.6 E 9 9 5 5 1009.3 1007.6 0.0
22/02:30am 22.8 20.2 -5.2 15 11.6 CALM 0 9 0 5 1009.4 1007.7 0.0
22/02:00am 24.4 21.8 -4.8 14 12.4 CALM 0 0 0 0 1009.4 1007.7 0.0
22/01:30am 26.0 23.3 -5.6 12 13.4 CALM 0 0 0 0 1009.5 1007.8 0.0
22/01:00am 25.9 22.0 -4.6 13 13.2 E 7 9 4 5 1009.7 1008.0 0.0
22/12:30am 27.1 23.1 -5.9 11 14.1 E 7 9 4 5 1009.7 1008.0 0.0
22/12:00am 26.9 23.8 -6.0 11 14.0 E 2 9 1 5 1009.8 1008.1 0.0
 
Date/Time
CDT
Temp
°C
App
Temp
°C
Dew
Point
°C
Rel
Hum
%
Delta-T
°C
Wind Press
QNH
hPa
Press
MSL
hPa
Rain since
9am
mm
Dir  Spd
km/h
Gust
km/h
Spd
kts
Gust
kts
21/11:30pm 28.8 23.6 -5.8 10 15.0 ESE 13 15 7 8 1010.0 1008.3 0.0
21/11:00pm 27.7 22.8 -3.2 13 13.9 SE 13 24 7 13 1010.1 1008.4 0.0
21/10:30pm 29.4 27.0 -2.9 12 14.8 CALM 0 0 0 0 1010.0 1008.3 0.0
21/10:00pm 31.5 27.9 -3.8 10 16.2 SSW 6 7 3 4 1009.9 1008.2 0.0
21/09:30pm 31.5 27.3 -3.8 10 16.2 SSW 9 9 5 5 1009.8 1008.1 0.0
21/09:00pm 32.3 28.2 -3.2 10 16.5 SSW 9 9 5 5 1009.8 1008.1 0.0
21/08:30pm 33.4 28.5 -3.7 9 17.3 SSW 13 15 7 8 1009.6 1007.9 0.0
21/08:00pm 34.8 28.8 -2.7 9 17.9 SSW 19 24 10 13 1009.3 1007.6 0.0
21/07:30pm 35.5 29.8 -3.8 8 18.6 SSW 17 24 9 13 1009.2 1007.5 0.0

Other formats

Comma delimited format used in spreadsheet applications
http://www.bom.gov.au/fwo/IDS60801/IDS60801.94674.axf

JavaScript Object Notation format (JSON) in row-major order
http://www.bom.gov.au/fwo/IDS60801/IDS60801.94674.json

Data quality

Most of these data are generated automatically and are frequently updated. Quality checks on data are not normally performed. It is possible for incorrect values to appear. Refer to information at About Latest Weather Observations and please check the disclaimer before using these data.